Campti, Texas
Current Conditions -  °F | °C
As of 11:15 AM on Thursday 30 Oct 2014 (Local Time) from KOCH Reporting Station
Clear Clear  
Wind Chill: 66°   Ceiling: Unl
Heat Index: 66°   Visibility: 10mi
Dew Point: 45°   Wind: 9mph
Humidity: 46%   Direction: 130°SE
Pressure: 30.19"   Gusts: NA
Location:  31.7586°N, 94.1975°W
Report Text: KOCH 301615Z AUTO 13008KT 10SM CLR 19/07 A3019 RMK AO1
Loading
Personal Weather Stations






























Interactive Weather Map
Tropical Storm Tracking
New forecast layout! Learn more

10-Day Weather Forecast

Advertisements
Track Severe Weather on mobile